Time;durP1;ratioP1;P1;durP2;ratioP2;P2;SDS_P1;SDS_P2;PMS_P1;PMS_P2;Temp;Humidity;BMP_temperature;BMP_pressure;BME280_temperature;BME280_humidity;BME280_pressure;Samples;Min_cycle;Max_cycle;Signal;HPM_P1;HPM_P2
2022/03/23 00:01:00;;;;;;;23.70;16.67;;;5.90;49.00;;;;;;5079566;28;20204;-56
2022/03/23 00:03:27;;;;;;;21.67;16.63;;;5.90;49.20;;;;;;5080437;28;20200;-57
2022/03/23 00:05:56;;;;;;;20.25;15.32;;;5.80;49.30;;;;;;5078764;28;20217;-56
2022/03/23 00:08:23;;;;;;;20.45;15.55;;;5.80;49.40;;;;;;5078864;28;20378;-56
2022/03/23 00:10:50;;;;;;;21.30;15.98;;;5.80;49.70;;;;;;5080460;28;20208;-57
2022/03/23 00:13:17;;;;;;;19.58;16.50;;;5.70;49.80;;;;;;5076517;28;20218;-57
2022/03/23 00:15:45;;;;;;;21.13;15.88;;;5.70;50.10;;;;;;5078309;28;20227;-57
2022/03/23 00:18:12;;;;;;;19.33;15.57;;;5.60;50.20;;;;;;5082598;28;20207;-58
2022/03/23 00:20:40;;;;;;;20.73;15.95;;;5.60;50.40;;;;;;5078519;28;20208;-58
2022/03/23 00:23:09;;;;;;;18.70;15.68;;;5.60;50.60;;;;;;5076638;28;20204;-56
2022/03/23 00:25:37;;;;;;;21.20;16.20;;;5.50;50.70;;;;;;5078522;28;20209;-58
2022/03/23 00:28:04;;;;;;;21.70;16.38;;;5.50;50.90;;;;;;5079599;28;20211;-56
2022/03/23 00:30:33;;;;;;;21.85;15.73;;;5.50;51.10;;;;;;5078405;28;20211;-55
2022/03/23 00:33:02;;;;;;;21.90;16.10;;;5.40;51.20;;;;;;5079341;28;20254;-56
2022/03/23 00:35:30;;;;;;;21.75;17.67;;;5.40;51.30;;;;;;5080630;28;20224;-56
2022/03/23 00:37:57;;;;;;;23.45;16.70;;;5.40;51.40;;;;;;5088691;28;20224;-56
2022/03/23 00:40:28;;;;;;;22.40;17.02;;;5.40;51.50;;;;;;5081941;28;20234;-57
2022/03/23 00:42:55;;;;;;;22.58;16.45;;;5.40;51.50;;;;;;5081665;28;20185;-57
2022/03/23 00:45:22;;;;;;;22.55;16.13;;;5.40;51.60;;;;;;5079907;28;20196;-56
2022/03/23 00:47:49;;;;;;;23.30;15.73;;;5.40;51.60;;;;;;5088611;28;20224;-57
2022/03/23 00:50:17;;;;;;;19.20;15.60;;;5.40;51.60;;;;;;5088922;28;20252;-56
2022/03/23 00:52:47;;;;;;;21.20;17.02;;;5.30;51.60;;;;;;5085297;28;20443;-56
2022/03/23 00:55:15;;;;;;;21.02;16.95;;;5.30;51.80;;;;;;5081717;28;20237;-56
2022/03/23 00:57:44;;;;;;;19.85;16.73;;;5.30;52.50;;;;;;5080737;28;20228;-56
2022/03/23 01:00:16;;;;;;;21.20;16.13;;;5.20;52.00;;;;;;5081785;28;20201;-56
2022/03/23 01:02:45;;;;;;;19.08;16.08;;;5.20;52.20;;;;;;5081632;28;20197;-56
2022/03/23 01:05:13;;;;;;;22.00;16.50;;;5.20;52.30;;;;;;5083254;28;20223;-56
2022/03/23 01:07:41;;;;;;;22.13;16.40;;;5.10;52.30;;;;;;5083000;28;20266;-57
2022/03/23 01:10:11;;;;;;;25.17;16.25;;;5.10;52.30;;;;;;5089485;28;20208;-57
2022/03/23 01:12:39;;;;;;;21.58;17.63;;;5.10;52.30;;;;;;5085318;28;20229;-58
2022/03/23 01:15:09;;;;;;;21.13;17.92;;;5.10;52.40;;;;;;5082384;28;20236;-56
2022/03/23 01:17:37;;;;;;;22.92;17.02;;;5.10;52.50;;;;;;5078718;28;20221;-55
2022/03/23 01:20:05;;;;;;;17.17;14.75;;;5.00;52.50;;;;;;5079677;28;20208;-56
2022/03/23 01:22:32;;;;;;;22.08;16.17;;;5.00;52.60;;;;;;5078169;28;20201;-56
2022/03/23 01:24:59;;;;;;;19.33;15.40;;;5.00;52.70;;;;;;5077476;28;20197;-56
2022/03/23 01:27:26;;;;;;;22.42;15.80;;;5.00;52.90;;;;;;5082768;28;20221;-56
2022/03/23 01:29:53;;;;;;;21.27;16.33;;;4.90;52.90;;;;;;5085820;28;20208;-56
2022/03/23 01:32:22;;;;;;;23.48;15.45;;;4.90;53.10;;;;;;5094720;28;20201;-56
2022/03/23 01:34:49;;;;;;;18.90;15.85;;;4.90;53.30;;;;;;5090083;28;20217;-56
2022/03/23 01:37:16;;;;;;;23.10;16.00;;;4.90;53.50;;;;;;5087250;28;20221;-56
2022/03/23 01:39:44;;;;;;;23.98;16.40;;;4.80;53.60;;;;;;5086446;28;20204;-56
2022/03/23 01:42:11;;;;;;;20.30;16.23;;;4.80;53.70;;;;;;5087104;28;20216;-56
2022/03/23 01:44:38;;;;;;;20.65;17.27;;;4.80;53.90;;;;;;5086266;28;20197;-56
2022/03/23 01:47:08;;;;;;;25.90;17.05;;;4.80;54.10;;;;;;5083132;28;20217;-56
2022/03/23 01:49:38;;;;;;;23.88;16.70;;;4.70;54.30;;;;;;5083467;28;20219;-56
2022/03/23 01:52:08;;;;;;;25.23;16.85;;;4.70;54.80;;;;;;5082594;28;20197;-56
2022/03/23 01:54:37;;;;;;;23.63;15.48;;;4.70;55.20;;;;;;5076739;28;20205;-56
2022/03/23 01:57:05;;;;;;;23.27;17.33;;;4.70;55.60;;;;;;5075481;28;20738;-56
2022/03/23 01:59:33;;;;;;;22.50;16.08;;;4.70;55.80;;;;;;5075419;28;20204;-56
2022/03/23 02:02:00;;;;;;;27.48;18.65;;;4.70;56.00;;;;;;5075696;28;20201;-57
2022/03/23 02:04:28;;;;;;;21.48;16.73;;;4.60;56.10;;;;;;5075888;28;20204;-54
2022/03/23 02:06:56;;;;;;;21.77;16.63;;;4.60;56.30;;;;;;5075093;28;20225;-55
2022/03/23 02:09:25;;;;;;;22.70;17.25;;;4.60;56.70;;;;;;5075099;28;20378;-54
2022/03/23 02:11:53;;;;;;;23.73;16.70;;;4.50;57.00;;;;;;5074912;28;20727;-55
2022/03/23 02:14:21;;;;;;;24.38;16.80;;;4.50;57.50;;;;;;5075141;28;20221;-56
2022/03/23 02:16:50;;;;;;;18.98;16.20;;;4.50;57.80;;;;;;5075006;28;20225;-55
2022/03/23 02:19:17;;;;;;;24.42;17.27;;;4.40;58.20;;;;;;5074708;28;20574;-55
2022/03/23 02:21:46;;;;;;;21.25;16.00;;;4.30;58.50;;;;;;5075113;28;20201;-56
2022/03/23 02:24:14;;;;;;;25.20;17.33;;;4.30;59.00;;;;;;5074919;28;20197;-57
2022/03/23 02:26:42;;;;;;;22.10;16.75;;;4.30;59.50;;;;;;5074629;28;20244;-54
2022/03/23 02:29:10;;;;;;;19.00;15.48;;;4.20;59.80;;;;;;5074623;28;20204;-55
2022/03/23 02:31:37;;;;;;;20.08;16.30;;;4.20;60.30;;;;;;5074644;28;20197;-55
2022/03/23 02:34:05;;;;;;;23.65;16.50;;;4.20;60.80;;;;;;5074844;28;20205;-56
2022/03/23 02:36:32;;;;;;;24.25;16.75;;;4.10;61.00;;;;;;5074846;28;20227;-55
2022/03/23 02:39:01;;;;;;;21.67;15.73;;;4.10;61.40;;;;;;5075664;28;20201;-54
2022/03/23 02:41:28;;;;;;;22.23;17.10;;;4.10;61.80;;;;;;5074360;28;20204;-55
2022/03/23 02:43:55;;;;;;;21.17;16.98;;;4.10;62.00;;;;;;5074355;28;20234;-56
2022/03/23 02:46:22;;;;;;;21.30;16.35;;;4.00;62.20;;;;;;5074713;28;20228;-56
2022/03/23 02:48:51;;;;;;;21.30;16.85;;;4.00;62.40;;;;;;5073523;28;20599;-56
2022/03/23 02:51:18;;;;;;;27.08;17.00;;;4.00;62.70;;;;;;5074394;28;20208;-55
2022/03/23 03:02:19;;;;;;;20.58;16.30;;;3.90;63.40;;;;;;5075112;28;20185;-56
2022/03/23 03:04:47;;;;;;;25.42;17.15;;;3.90;63.70;;;;;;5075386;28;20240;-55
2022/03/23 03:07:14;;;;;;;23.88;17.10;;;3.90;64.00;;;;;;5074436;28;20706;-57
2022/03/23 03:09:41;;;;;;;20.85;16.27;;;3.90;64.60;;;;;;5074164;28;20588;-57
2022/03/23 03:12:11;;;;;;;25.88;17.33;;;3.80;64.90;;;;;;5074631;28;20201;-56
2022/03/23 03:14:38;;;;;;;22.33;15.98;;;3.80;65.20;;;;;;5074618;28;20240;-55
2022/03/23 03:17:06;;;;;;;22.20;17.42;;;3.80;65.70;;;;;;5074269;28;20304;-56
2022/03/23 03:19:33;;;;;;;20.95;16.60;;;3.80;66.40;;;;;;5074394;28;20270;-55
2022/03/23 03:22:00;;;;;;;27.15;17.17;;;3.70;66.50;;;;;;5074143;28;20447;-56
2022/03/23 03:24:27;;;;;;;18.55;16.52;;;3.70;67.00;;;;;;5073779;28;20204;-56
2022/03/23 03:26:55;;;;;;;19.15;15.48;;;3.70;67.30;;;;;;5073729;28;20256;-55
2022/03/23 03:29:26;;;;;;;23.15;17.08;;;3.70;67.40;;;;;;5073758;28;20695;-56
2022/03/23 03:31:54;;;;;;;19.67;15.25;;;3.70;67.30;;;;;;5073921;28;20189;-56
2022/03/23 03:34:21;;;;;;;22.08;16.60;;;3.70;67.30;;;;;;5073686;28;20291;-56
2022/03/23 03:36:48;;;;;;;21.25;16.55;;;3.60;67.20;;;;;;5073710;28;20225;-55
2022/03/23 03:39:15;;;;;;;20.88;16.67;;;3.60;67.40;;;;;;5073992;28;20321;-56
2022/03/23 03:41:42;;;;;;;25.67;15.90;;;3.60;67.40;;;;;;5074910;28;20569;-57
2022/03/23 03:44:11;;;;;;;24.55;16.48;;;3.60;67.40;;;;;;5086267;28;20203;-56
2022/03/23 03:46:40;;;;;;;21.83;17.10;;;3.60;67.50;;;;;;5081347;28;20217;-56
2022/03/23 03:49:08;;;;;;;22.48;17.40;;;3.50;67.60;;;;;;5079300;28;20298;-56
2022/03/23 03:51:35;;;;;;;24.40;17.38;;;3.50;67.70;;;;;;5074999;28;20598;-57
2022/03/23 03:54:03;;;;;;;25.05;17.60;;;3.50;67.90;;;;;;5073535;28;20205;-55
2022/03/23 03:56:30;;;;;;;22.30;16.95;;;3.40;68.00;;;;;;5073807;28;20227;-56
2022/03/23 03:58:57;;;;;;;20.52;16.13;;;3.40;68.20;;;;;;5072995;28;20206;-57
2022/03/23 04:01:24;;;;;;;23.30;17.27;;;3.40;68.30;;;;;;5073853;28;20230;-55
2022/03/23 04:03:52;;;;;;;22.70;17.20;;;3.30;68.30;;;;;;5073293;28;20196;-57
2022/03/23 04:09:30;;;;;;;20.77;16.55;;;3.30;68.30;;;;;;5091700;27;20550;-57
2022/03/23 04:11:57;;;;;;;27.20;16.95;;;3.30;69.00;;;;;;5090647;28;20199;-56
2022/03/23 04:14:24;;;;;;;23.38;17.13;;;3.20;68.50;;;;;;5090794;28;20199;-56
2022/03/23 04:16:51;;;;;;;20.45;18.10;;;3.20;69.10;;;;;;5090916;28;20223;-56
2022/03/23 04:19:18;;;;;;;22.90;17.40;;;3.10;69.40;;;;;;5091297;28;20195;-56
2022/03/23 04:21:46;;;;;;;21.80;17.05;;;3.10;69.80;;;;;;5099006;22;20228;-55
2022/03/23 04:24:13;;;;;;;22.20;16.60;;;3.10;70.30;;;;;;5050297;28;20259;-53
2022/03/23 04:26:44;;;;;;;24.02;17.60;;;3.10;70.80;;;;;;5050245;28;20233;-55
2022/03/23 04:29:11;;;;;;;24.48;18.67;;;3.00;71.20;;;;;;5049886;28;20245;-54
2022/03/23 04:31:38;;;;;;;26.60;17.25;;;3.00;71.80;;;;;;5050258;28;20224;-55
2022/03/23 04:34:05;;;;;;;24.00;17.88;;;2.90;72.30;;;;;;5050396;28;20226;-55
2022/03/23 04:36:33;;;;;;;21.20;16.90;;;2.90;72.90;;;;;;5050279;28;20207;-54
2022/03/23 04:39:00;;;;;;;33.47;18.45;;;2.90;73.40;;;;;;5050218;28;20227;-54
2022/03/23 04:41:27;;;;;;;36.47;19.10;;;2.90;74.00;;;;;;5049862;28;20228;-54
2022/03/23 04:43:55;;;;;;;23.08;18.02;;;2.90;74.60;;;;;;5049664;28;20705;-55
2022/03/23 04:46:23;;;;;;;23.17;16.90;;;2.90;74.30;;;;;;5049641;28;20685;-55
2022/03/23 04:48:50;;;;;;;27.95;18.40;;;2.90;74.30;;;;;;5049911;28;20225;-54
2022/03/23 04:51:17;;;;;;;23.27;17.30;;;2.90;74.30;;;;;;5049894;28;20224;-54
2022/03/23 04:53:44;;;;;;;25.67;17.48;;;2.90;74.50;;;;;;5050021;28;20237;-54
2022/03/23 04:56:12;;;;;;;23.65;17.92;;;2.80;74.80;;;;;;5050226;28;20544;-55
2022/03/23 04:58:42;;;;;;;25.33;18.00;;;2.80;75.10;;;;;;5050353;28;20542;-54
2022/03/23 05:01:11;;;;;;;22.35;17.33;;;2.80;75.40;;;;;;5050380;28;20552;-55
2022/03/23 05:03:38;;;;;;;28.10;17.17;;;2.80;75.70;;;;;;5049569;28;20210;-53
2022/03/23 05:06:05;;;;;;;24.50;17.25;;;2.70;75.70;;;;;;5050985;28;20207;-52
2022/03/23 05:08:32;;;;;;;25.90;18.38;;;2.80;75.90;;;;;;5050216;28;20311;-55
2022/03/23 05:10:59;;;;;;;24.55;17.33;;;2.80;76.00;;;;;;5050439;28;20677;-55
2022/03/23 05:13:26;;;;;;;25.75;16.98;;;2.80;76.10;;;;;;5050392;28;20207;-54
2022/03/23 05:15:54;;;;;;;25.77;18.60;;;2.70;76.00;;;;;;5050312;28;20209;-53
2022/03/23 05:18:22;;;;;;;26.13;18.05;;;2.70;75.90;;;;;;5050848;28;20207;-54
2022/03/23 05:20:49;;;;;;;23.40;17.73;;;2.70;76.20;;;;;;5037238;28;20243;-57
2022/03/23 05:23:16;;;;;;;38.00;20.42;;;2.70;76.50;;;;;;5036864;28;20223;-53
2022/03/23 05:25:43;;;;;;;26.30;18.88;;;2.70;76.70;;;;;;5036656;28;20201;-54
2022/03/23 05:28:11;;;;;;;26.63;17.98;;;2.70;76.70;;;;;;5037510;28;20216;-55
2022/03/23 05:30:38;;;;;;;45.17;20.17;;;2.70;77.00;;;;;;5039071;28;20680;-54
2022/03/23 05:33:05;;;;;;;25.45;17.77;;;2.70;77.40;;;;;;5039259;28;20224;-53
2022/03/23 05:35:34;;;;;;;23.02;17.52;;;2.70;77.80;;;;;;5037843;28;20205;-56
2022/03/23 05:38:01;;;;;;;33.42;19.38;;;2.70;77.80;;;;;;5037382;28;20200;-54
2022/03/23 05:40:28;;;;;;;25.48;18.30;;;2.70;78.10;;;;;;5037192;28;20204;-53
2022/03/23 05:42:55;;;;;;;25.67;18.88;;;2.80;78.50;;;;;;5036788;28;20231;-55
2022/03/23 05:45:23;;;;;;;24.05;18.77;;;2.80;78.50;;;;;;5036537;28;20209;-54
2022/03/23 05:47:53;;;;;;;23.20;17.75;;;2.80;78.60;;;;;;5035521;28;20201;-55
2022/03/23 05:50:20;;;;;;;29.40;18.17;;;2.90;78.70;;;;;;5035428;28;20205;-56
2022/03/23 05:52:48;;;;;;;26.50;18.58;;;2.90;78.50;;;;;;5035324;28;20232;-54
2022/03/23 05:55:15;;;;;;;22.42;18.65;;;3.00;78.50;;;;;;5035385;28;20233;-55
2022/03/23 05:57:42;;;;;;;26.45;17.02;;;3.10;78.50;;;;;;5035520;28;20214;-54
2022/03/23 06:00:10;;;;;;;23.70;17.88;;;3.10;78.10;;;;;;5035893;28;20212;-55
2022/03/23 06:02:38;;;;;;;24.13;17.13;;;3.20;77.70;;;;;;5034954;28;20229;-55
2022/03/23 06:05:06;;;;;;;20.63;16.73;;;3.30;77.50;;;;;;5035275;28;20206;-55
2022/03/23 06:07:34;;;;;;;27.48;19.13;;;3.30;77.00;;;;;;5035332;28;20232;-53
2022/03/23 06:10:02;;;;;;;27.92;18.60;;;3.40;76.80;;;;;;5034977;28;20235;-55
2022/03/23 06:12:30;;;;;;;30.38;19.60;;;3.50;76.60;;;;;;5034592;28;20226;-53
2022/03/23 06:14:57;;;;;;;22.63;18.65;;;3.50;76.30;;;;;;5034660;28;20221;-56
2022/03/23 06:17:24;;;;;;;24.67;17.50;;;3.60;76.10;;;;;;5034867;28;20244;-55
2022/03/23 06:19:51;;;;;;;29.88;19.38;;;3.70;75.90;;;;;;5034957;28;20198;-55
2022/03/23 06:22:18;;;;;;;24.70;18.05;;;3.80;75.80;;;;;;5034660;28;20237;-56
2022/03/23 06:24:45;;;;;;;28.65;19.58;;;3.80;75.40;;;;;;5034662;28;20585;-54
2022/03/23 06:27:14;;;;;;;23.85;17.95;;;3.90;75.00;;;;;;5035191;28;20207;-56
2022/03/23 06:29:41;;;;;;;26.60;20.27;;;4.00;74.70;;;;;;5034548;28;20232;-55
2022/03/23 06:32:09;;;;;;;27.13;20.88;;;4.10;74.50;;;;;;5033658;28;20221;-57
2022/03/23 06:34:36;;;;;;;27.52;20.65;;;4.20;74.20;;;;;;5036870;28;20245;-56
2022/03/23 06:37:03;;;;;;;22.50;19.10;;;4.30;73.80;;;;;;5036969;28;20225;-54
2022/03/23 06:39:31;;;;;;;28.30;19.70;;;4.40;73.40;;;;;;5034777;28;20651;-54
2022/03/23 06:41:58;;;;;;;28.02;21.02;;;4.60;73.00;;;;;;5035864;28;20226;-56
2022/03/23 06:44:27;;;;;;;28.48;19.92;;;4.70;72.50;;;;;;5035032;28;20206;-56
2022/03/23 06:46:54;;;;;;;28.20;20.13;;;4.80;72.30;;;;;;5034972;28;20210;-54
2022/03/23 06:49:21;;;;;;;25.25;20.48;;;4.90;72.10;;;;;;5035316;28;20685;-54
2022/03/23 06:51:48;;;;;;;25.95;20.73;;;5.00;71.90;;;;;;5035055;28;20226;-54
2022/03/23 06:54:17;;;;;;;27.92;21.17;;;5.10;71.60;;;;;;5035077;28;20670;-53
2022/03/23 06:56:44;;;;;;;22.35;18.98;;;5.20;71.30;;;;;;5034902;28;20258;-53
2022/03/23 06:59:11;;;;;;;26.73;20.83;;;5.30;70.90;;;;;;5035591;28;20209;-53
2022/03/23 07:01:39;;;;;;;26.05;19.98;;;5.40;70.60;;;;;;5034544;28;20765;-55
2022/03/23 07:04:06;;;;;;;26.25;20.85;;;5.50;70.20;;;;;;5033030;28;20226;-54
2022/03/23 07:06:33;;;;;;;23.27;20.23;;;5.60;70.00;;;;;;5033143;28;20202;-55
2022/03/23 07:11:45;;;;;;;29.05;20.10;;;5.90;69.40;;;;;;5034144;28;20599;-54
2022/03/23 07:14:12;;;;;;;24.60;20.63;;;6.00;68.80;;;;;;5034072;28;20194;-55
2022/03/23 07:16:42;;;;;;;25.55;21.33;;;6.10;68.10;;;;;;5033596;28;20229;-55
2022/03/23 07:19:10;;;;;;;26.05;19.30;;;6.30;67.60;;;;;;5033676;28;20206;-56
2022/03/23 07:21:37;;;;;;;25.77;20.90;;;6.40;67.00;;;;;;5033211;28;20235;-56
2022/03/23 07:24:04;;;;;;;24.05;20.58;;;6.50;66.40;;;;;;5034003;28;20191;-54
2022/03/23 07:26:31;;;;;;;36.03;21.10;;;6.70;65.90;;;;;;5032670;28;20733;-56
2022/03/23 07:28:58;;;;;;;24.40;19.92;;;6.80;65.20;;;;;;5034295;28;20220;-54
2022/03/23 07:31:25;;;;;;;23.65;18.67;;;6.90;64.60;;;;;;5035467;28;20223;-54
2022/03/23 07:33:54;;;;;;;26.35;18.83;;;7.00;64.00;;;;;;5034736;28;20226;-55
2022/03/23 07:36:21;;;;;;;23.77;18.77;;;7.10;63.20;;;;;;5034252;28;20199;-54
2022/03/23 07:38:48;;;;;;;25.15;18.95;;;7.30;62.20;;;;;;5034518;28;20195;-55
2022/03/23 07:41:15;;;;;;;29.30;18.50;;;7.40;61.00;;;;;;5033585;28;20223;-55
2022/03/23 07:43:42;;;;;;;25.58;19.58;;;7.60;60.10;;;;;;5034001;28;20354;-55
2022/03/23 07:46:09;;;;;;;23.05;19.48;;;7.70;59.40;;;;;;5033555;28;20206;-56
2022/03/23 07:48:37;;;;;;;23.80;18.48;;;7.80;58.60;;;;;;5033404;28;20250;-54
2022/03/23 07:51:05;;;;;;;22.45;18.25;;;7.90;58.00;;;;;;5032623;28;20211;-55
2022/03/23 07:53:33;;;;;;;25.38;19.85;;;8.00;57.40;;;;;;5034185;28;20209;-55
2022/03/23 07:56:00;;;;;;;21.25;18.48;;;8.10;57.00;;;;;;5033544;28;20210;-56
2022/03/23 07:58:28;;;;;;;28.55;20.27;;;8.30;56.40;;;;;;5033535;28;20199;-55
2022/03/23 08:00:56;;;;;;;24.70;19.02;;;8.40;55.70;;;;;;5033181;28;20214;-54
2022/03/23 08:03:23;;;;;;;22.85;18.92;;;8.50;55.30;;;;;;5033907;28;20201;-57
2022/03/23 08:05:50;;;;;;;24.08;19.15;;;8.70;54.80;;;;;;5035178;28;20210;-54
2022/03/23 08:08:19;;;;;;;22.38;19.65;;;8.80;54.30;;;;;;5032911;28;20564;-55
2022/03/23 08:10:46;;;;;;;23.45;19.38;;;8.90;53.80;;;;;;5033365;28;20215;-54
2022/03/23 08:13:16;;;;;;;22.50;19.50;;;9.10;53.40;;;;;;5034284;28;20592;-55
2022/03/23 08:15:43;;;;;;;24.08;20.05;;;9.20;52.80;;;;;;5032569;28;20455;-57
2022/03/23 08:18:10;;;;;;;24.83;22.00;;;9.30;52.40;;;;;;5033470;28;20208;-55
2022/03/23 08:20:37;;;;;;;28.50;20.52;;;9.40;51.90;;;;;;5032710;28;20447;-54
2022/03/23 08:23:06;;;;;;;27.17;19.33;;;9.60;51.60;;;;;;5032853;28;20232;-56
2022/03/23 08:25:37;;;;;;;23.47;18.53;;;9.70;50.90;;;;;;5032819;28;20458;-55
2022/03/23 08:28:17;;;;;;;23.77;19.60;;;9.80;50.20;;;;;;5032955;28;20919;-55
2022/03/23 08:30:46;;;;;;;23.33;20.77;;;10.00;48.80;;;;;;5031572;28;20483;-56
2022/03/23 08:33:13;;;;;;;23.60;18.80;;;10.10;48.30;;;;;;5032835;28;20475;-54
2022/03/23 08:35:40;;;;;;;24.87;19.40;;;10.20;47.70;;;;;;5032790;28;20454;-55
2022/03/23 08:38:08;;;;;;;30.27;19.77;;;10.30;47.40;;;;;;5032222;28;20821;-55
2022/03/23 08:40:37;;;;;;;26.77;20.67;;;10.40;46.80;;;;;;5032844;28;20444;-57
2022/03/23 08:43:04;;;;;;;26.00;20.17;;;10.60;46.30;;;;;;5033396;28;20475;-55
2022/03/23 08:45:31;;;;;;;25.50;19.13;;;10.60;45.40;;;;;;5032392;28;20510;-55
2022/03/23 08:48:00;;;;;;;23.73;19.53;;;10.70;44.80;;;;;;5031678;28;20978;-55
2022/03/23 08:50:27;;;;;;;25.10;19.73;;;10.70;44.30;;;;;;5032859;28;20484;-54
2022/03/23 08:52:55;;;;;;;23.87;19.80;;;10.80;43.70;;;;;;5037198;28;20465;-54
2022/03/23 08:55:24;;;;;;;27.70;19.77;;;10.90;43.20;;;;;;5035810;28;20451;-55
2022/03/23 08:57:53;;;;;;;27.60;20.10;;;11.00;42.50;;;;;;5036900;28;20474;-55
2022/03/23 09:00:20;;;;;;;23.00;19.80;;;11.10;41.70;;;;;;5036847;28;20974;-53
2022/03/23 09:02:47;;;;;;;23.03;18.97;;;11.20;41.20;;;;;;5036836;28;20470;-54
2022/03/23 09:05:15;;;;;;;23.20;19.13;;;11.40;40.80;;;;;;5036360;28;20456;-55
2022/03/23 09:07:43;;;;;;;26.90;19.87;;;11.50;40.20;;;;;;5037182;28;20454;-56
2022/03/23 09:10:13;;;;;;;25.07;18.57;;;11.70;39.80;;;;;;5036412;28;20991;-56
2022/03/23 09:12:41;;;;;;;22.17;18.43;;;11.80;39.40;;;;;;5036845;28;20482;-56
2022/03/23 09:15:11;;;;;;;23.93;20.10;;;12.00;39.10;;;;;;5035554;28;20454;-55
2022/03/23 09:17:39;;;;;;;26.30;19.80;;;12.10;38.60;;;;;;5036546;28;20534;-55
2022/03/23 09:20:10;;;;;;;21.80;19.60;;;12.30;38.20;;;;;;5035640;28;20443;-55
2022/03/23 09:22:37;;;;;;;25.23;19.58;;;12.50;37.70;;;;;;5034849;28;20548;-56
2022/03/23 09:25:05;;;;;;;24.47;20.10;;;12.70;37.00;;;;;;5035486;28;20321;-55
2022/03/23 09:27:34;;;;;;;21.87;19.47;;;12.80;36.50;;;;;;5036159;28;20496;-55
2022/03/23 09:30:01;;;;;;;23.03;19.67;;;13.00;36.20;;;;;;5035484;28;20494;-56
2022/03/23 09:32:30;;;;;;;21.90;19.60;;;13.10;35.80;;;;;;5034823;28;20471;-58
2022/03/23 09:34:57;;;;;;;24.40;19.53;;;13.20;35.50;;;;;;5036000;28;20458;-58
2022/03/23 09:40:09;;;;;;;21.70;19.30;;;13.50;35.10;;;;;;5035055;28;20418;-57
2022/03/23 09:42:38;;;;;;;21.20;18.90;;;13.60;34.90;;;;;;5034819;28;20484;-56
2022/03/23 09:45:06;;;;;;;28.73;20.17;;;13.70;34.70;;;;;;5036351;28;20509;-57
2022/03/23 09:47:34;;;;;;;23.50;19.67;;;13.80;34.40;;;;;;5035352;28;20958;-55
2022/03/23 09:50:01;;;;;;;24.80;21.00;;;13.80;34.10;;;;;;5034002;28;20481;-56
2022/03/23 09:52:28;;;;;;;24.73;19.73;;;13.90;33.90;;;;;;5034232;28;20546;-56
2022/03/23 09:54:55;;;;;;;21.50;18.93;;;14.10;33.70;;;;;;5035534;28;20501;-56
2022/03/23 09:57:22;;;;;;;27.03;20.10;;;14.20;33.30;;;;;;5035432;28;20451;-54
2022/03/23 09:59:49;;;;;;;21.30;18.80;;;14.30;33.00;;;;;;5034087;28;20447;-57
2022/03/23 10:03:21;;;;;;;22.47;18.30;;;14.40;32.70;;;;;;5034580;28;20478;-57
2022/03/23 10:06:35;;;;;;;23.63;19.13;;;14.60;31.70;;;;;;5031260;28;20451;-56
2022/03/23 10:09:44;;;;;;;23.93;16.77;;;14.70;30.70;;;;;;5034304;28;20459;-56
2022/03/23 10:12:50;;;;;;;20.87;17.77;;;14.80;30.20;;;;;;4973498;28;20514;-56
2022/03/23 10:16:04;;;;;;;19.43;16.47;;;14.90;30.00;;;;;;4974375;28;20466;-56
2022/03/23 10:18:55;;;;;;;20.07;17.87;;;15.10;29.80;;;;;;5035353;28;20424;-56
2022/03/23 10:21:24;;;;;;;18.67;16.67;;;15.20;29.30;;;;;;5034965;28;20486;-57
2022/03/23 10:24:24;;;;;;;19.53;17.40;;;15.20;29.30;;;;;;5033705;28;20438;-57
2022/03/23 10:26:51;;;;;;;18.70;16.70;;;15.30;29.10;;;;;;5030181;28;20460;-56
2022/03/23 10:29:23;;;;;;;18.37;15.97;;;15.40;29.10;;;;;;5034646;28;20483;-57
2022/03/23 10:32:04;;;;;;;24.40;16.97;;;15.40;28.90;;;;;;5034120;28;20483;-57
2022/03/23 10:34:49;;;;;;;18.10;16.30;;;15.50;28.70;;;;;;5032774;28;20441;-56
2022/03/23 10:37:23;;;;;;;20.33;18.13;;;15.70;27.90;;;;;;5034586;28;20194;-56
2022/03/23 10:39:50;;;;;;;19.13;17.23;;;15.80;27.70;;;;;;5034740;28;20427;-53
2022/03/23 10:42:18;;;;;;;19.03;16.27;;;15.80;27.60;;;;;;5033538;28;20469;-53
2022/03/23 10:44:46;;;;;;;20.03;17.40;;;15.70;27.50;;;;;;5034481;28;20448;-55
2022/03/23 10:47:27;;;;;;;18.80;16.80;;;15.80;27.40;;;;;;5034024;28;20448;-54
2022/03/23 10:49:56;;;;;;;19.60;15.83;;;15.80;27.40;;;;;;5022064;28;20479;-55
2022/03/23 10:52:28;;;;;;;20.93;18.23;;;15.90;27.40;;;;;;5034050;28;20471;-57
2022/03/23 10:54:57;;;;;;;20.90;17.43;;;16.00;27.40;;;;;;5032812;28;20441;-56
2022/03/23 10:58:07;;;;;;;22.57;16.17;;;16.30;27.30;;;;;;5033699;28;20459;-54
2022/03/23 11:00:36;;;;;;;18.30;16.37;;;16.40;27.00;;;;;;5033854;28;20457;-55
2022/03/23 11:03:06;;;;;;;19.60;16.50;;;16.40;27.00;;;;;;5032926;28;20458;-55
2022/03/23 11:05:37;;;;;;;17.50;15.70;;;16.50;27.00;;;;;;5033483;28;20453;-55
2022/03/23 11:08:09;;;;;;;18.27;16.23;;;16.50;26.80;;;;;;5032541;28;20451;-56
2022/03/23 11:16:12;;;;;;;19.67;17.67;;;16.60;26.10;;;;;;5033120;28;20919;-56
2022/03/23 11:18:40;;;;;;;16.53;14.83;;;16.70;26.10;;;;;;5032661;28;20458;-55
2022/03/23 11:21:08;;;;;;;18.23;16.30;;;16.80;26.00;;;;;;5033409;28;20476;-58
2022/03/23 11:23:37;;;;;;;18.20;15.93;;;16.80;25.90;;;;;;5032799;28;20552;-56
2022/03/23 11:26:07;;;;;;;17.10;15.50;;;16.80;25.80;;;;;;5033499;28;20454;-55
2022/03/23 11:28:36;;;;;;;16.67;14.97;;;16.90;25.80;;;;;;5033392;28;20454;-55
2022/03/23 11:31:05;;;;;;;17.53;15.70;;;17.00;25.70;;;;;;5032604;28;20511;-56
2022/03/23 11:33:34;;;;;;;19.83;15.53;;;17.00;25.40;;;;;;5033744;28;20474;-56
2022/03/23 11:36:02;;;;;;;17.43;14.43;;;17.00;25.40;;;;;;5033097;28;20980;-55
2022/03/23 11:38:33;;;;;;;17.50;15.70;;;17.00;25.30;;;;;;5032958;28;20445;-54
2022/03/23 11:41:01;;;;;;;17.37;15.57;;;17.10;25.30;;;;;;5032250;28;20918;-56
2022/03/23 11:43:32;;;;;;;17.33;15.47;;;17.30;25.30;;;;;;5033489;28;20452;-56
2022/03/23 11:46:01;;;;;;;17.20;15.40;;;17.60;25.20;;;;;;5033180;28;20938;-57
2022/03/23 11:48:48;;;;;;;15.80;14.13;;;17.60;24.90;;;;;;5032651;28;20484;-56
2022/03/23 11:51:32;;;;;;;16.73;15.03;;;17.70;24.80;;;;;;5033297;28;20493;-55
2022/03/23 11:54:10;;;;;;;16.33;14.00;;;17.70;24.50;;;;;;5033492;28;20834;-57
2022/03/23 11:56:45;;;;;;;16.40;14.70;;;17.70;24.30;;;;;;5032511;28;20442;-56
2022/03/23 11:59:20;;;;;;;18.07;16.27;;;17.80;24.30;;;;;;5033365;28;20487;-55
2022/03/23 12:01:48;;;;;;;17.50;15.63;;;17.70;23.80;;;;;;5033652;28;20515;-56
2022/03/23 12:04:19;;;;;;;16.63;14.53;;;17.60;23.80;;;;;;5033070;28;20560;-56
2022/03/23 12:06:47;;;;;;;17.70;15.90;;;17.60;23.80;;;;;;5032146;28;21019;-56
2022/03/23 12:09:33;;;;;;;19.60;14.90;;;17.60;23.70;;;;;;5033333;28;20459;-57
2022/03/23 12:12:01;;;;;;;16.83;15.07;;;17.80;23.70;;;;;;5033021;28;20472;-55
2022/03/23 12:14:30;;;;;;;15.73;14.23;;;17.90;23.50;;;;;;5031980;28;20935;-57
2022/03/23 12:17:25;;;;;;;17.10;14.73;;;17.90;23.20;;;;;;5033852;28;20462;-54
2022/03/23 12:20:05;;;;;;;16.40;14.70;;;17.90;23.20;;;;;;5032221;28;20437;-56
2022/03/23 12:23:01;;;;;;;16.50;14.80;;;17.80;23.00;;;;;;5032771;28;20487;-55
2022/03/23 12:25:37;;;;;;;16.10;14.07;;;17.90;23.00;;;;;;5033353;28;20451;-55
2022/03/23 12:28:27;;;;;;;17.30;14.90;;;17.90;23.00;;;;;;5031772;28;20453;-55
2022/03/23 12:31:10;;;;;;;17.93;16.00;;;18.00;22.60;;;;;;5036198;28;20465;-55
2022/03/23 12:33:58;;;;;;;17.47;15.27;;;17.90;22.70;;;;;;5036893;28;20438;-54
2022/03/23 12:36:56;;;;;;;17.40;15.60;;;17.90;22.80;;;;;;5035648;28;20454;-55
2022/03/23 12:39:35;;;;;;;18.40;16.50;;;17.90;22.80;;;;;;5036856;28;20521;-56
2022/03/23 12:42:17;;;;;;;17.00;15.30;;;17.90;23.00;;;;;;5037166;28;20464;-56
2022/03/23 12:44:47;;;;;;;16.43;14.93;;;18.00;22.90;;;;;;5036089;28;20928;-56
2022/03/23 12:47:18;;;;;;;17.37;14.63;;;18.00;22.70;;;;;;5037373;28;20443;-55
2022/03/23 12:58:14;;;;;;;18.07;14.77;;;18.40;22.50;;;;;;5036826;28;20406;-57
2022/03/23 13:00:43;;;;;;;15.93;14.43;;;18.40;22.30;;;;;;5035533;28;20441;-56
2022/03/23 13:03:41;;;;;;;15.63;14.13;;;18.40;22.20;;;;;;5036701;28;20843;-55
2022/03/23 13:06:10;;;;;;;16.27;14.73;;;18.40;22.20;;;;;;5036253;28;20486;-54
2022/03/23 13:08:47;;;;;;;16.20;14.60;;;18.30;22.20;;;;;;5036103;28;20997;-55
2022/03/23 13:11:16;;;;;;;17.43;15.60;;;18.20;22.20;;;;;;5035708;28;21064;-54
2022/03/23 13:13:50;;;;;;;19.30;15.60;;;18.20;22.20;;;;;;5037362;28;20457;-55
2022/03/23 13:16:19;;;;;;;17.37;15.67;;;18.30;22.20;;;;;;5037131;28;20532;-55
2022/03/23 13:18:47;;;;;;;16.60;14.77;;;18.30;22.30;;;;;;5034489;28;20809;-55